sensor_id;sensor_type;location;lat;lon;timestamp;P1;durP1;ratioP1;P2;durP2;ratioP2
5682;SDS011;2864;49.220;8.654;2023-07-13T00:01:14;7.50;;;1.90;;
5682;SDS011;2864;49.220;8.654;2023-07-13T00:03:41;5.63;;;1.80;;
5682;SDS011;2864;49.220;8.654;2023-07-13T00:06:07;3.67;;;1.70;;
5682;SDS011;2864;49.220;8.654;2023-07-13T00:08:33;3.27;;;1.70;;
5682;SDS011;2864;49.220;8.654;2023-07-13T00:11:02;4.60;;;2.07;;
5682;SDS011;2864;49.220;8.654;2023-07-13T00:13:28;4.00;;;1.60;;
5682;SDS011;2864;49.220;8.654;2023-07-13T00:15:56;5.00;;;2.03;;
5682;SDS011;2864;49.220;8.654;2023-07-13T00:18:22;4.07;;;2.00;;
5682;SDS011;2864;49.220;8.654;2023-07-13T00:20:48;3.53;;;1.67;;
5682;SDS011;2864;49.220;8.654;2023-07-13T00:23:14;4.10;;;1.80;;
5682;SDS011;2864;49.220;8.654;2023-07-13T00:29:02;3.03;;;2.10;;
5682;SDS011;2864;49.220;8.654;2023-07-13T00:31:27;6.43;;;1.90;;
5682;SDS011;2864;49.220;8.654;2023-07-13T00:33:53;5.27;;;2.10;;
5682;SDS011;2864;49.220;8.654;2023-07-13T00:36:18;3.20;;;1.90;;
5682;SDS011;2864;49.220;8.654;2023-07-13T00:38:45;4.07;;;2.00;;
5682;SDS011;2864;49.220;8.654;2023-07-13T00:41:10;5.37;;;2.00;;
5682;SDS011;2864;49.220;8.654;2023-07-13T00:43:36;3.93;;;1.90;;
5682;SDS011;2864;49.220;8.654;2023-07-13T00:46:09;3.63;;;1.90;;
5682;SDS011;2864;49.220;8.654;2023-07-13T00:48:47;4.17;;;2.30;;
5682;SDS011;2864;49.220;8.654;2023-07-13T00:51:15;2.73;;;1.90;;
5682;SDS011;2864;49.220;8.654;2023-07-13T00:53:43;4.33;;;2.23;;
5682;SDS011;2864;49.220;8.654;2023-07-13T00:56:09;2.47;;;2.00;;
5682;SDS011;2864;49.220;8.654;2023-07-13T00:58:35;2.87;;;1.63;;
5682;SDS011;2864;49.220;8.654;2023-07-13T01:01:01;3.27;;;2.00;;
5682;SDS011;2864;49.220;8.654;2023-07-13T01:03:26;3.27;;;1.90;;
5682;SDS011;2864;49.220;8.654;2023-07-13T01:05:52;3.40;;;1.80;;
5682;SDS011;2864;49.220;8.654;2023-07-13T01:08:18;4.27;;;2.00;;
5682;SDS011;2864;49.220;8.654;2023-07-13T01:10:52;4.10;;;1.87;;
5682;SDS011;2864;49.220;8.654;2023-07-13T01:13:18;2.23;;;1.83;;
5682;SDS011;2864;49.220;8.654;2023-07-13T01:15:45;5.27;;;1.93;;
5682;SDS011;2864;49.220;8.654;2023-07-13T01:18:17;6.13;;;2.17;;
5682;SDS011;2864;49.220;8.654;2023-07-13T01:20:49;1.97;;;1.77;;
5682;SDS011;2864;49.220;8.654;2023-07-13T01:23:16;3.83;;;2.00;;
5682;SDS011;2864;49.220;8.654;2023-07-13T01:25:41;5.33;;;1.90;;
5682;SDS011;2864;49.220;8.654;2023-07-13T01:28:07;4.30;;;2.00;;
5682;SDS011;2864;49.220;8.654;2023-07-13T01:30:34;2.50;;;2.00;;
5682;SDS011;2864;49.220;8.654;2023-07-13T01:33:00;3.50;;;2.07;;
5682;SDS011;2864;49.220;8.654;2023-07-13T01:35:26;4.53;;;2.07;;
5682;SDS011;2864;49.220;8.654;2023-07-13T01:37:52;6.57;;;2.23;;
5682;SDS011;2864;49.220;8.654;2023-07-13T01:40:18;3.30;;;2.10;;
5682;SDS011;2864;49.220;8.654;2023-07-13T01:42:45;2.47;;;1.80;;
5682;SDS011;2864;49.220;8.654;2023-07-13T01:45:11;4.50;;;2.20;;
5682;SDS011;2864;49.220;8.654;2023-07-13T01:47:36;2.97;;;1.83;;
5682;SDS011;2864;49.220;8.654;2023-07-13T01:50:02;2.50;;;1.87;;
5682;SDS011;2864;49.220;8.654;2023-07-13T01:52:28;2.10;;;1.90;;
5682;SDS011;2864;49.220;8.654;2023-07-13T01:54:54;3.00;;;1.90;;
5682;SDS011;2864;49.220;8.654;2023-07-13T01:57:19;2.90;;;2.10;;
5682;SDS011;2864;49.220;8.654;2023-07-13T02:03:07;3.17;;;1.97;;
5682;SDS011;2864;49.220;8.654;2023-07-13T02:05:32;5.67;;;2.27;;
5682;SDS011;2864;49.220;8.654;2023-07-13T02:07:58;4.50;;;2.10;;
5682;SDS011;2864;49.220;8.654;2023-07-13T02:10:24;3.30;;;2.20;;
5682;SDS011;2864;49.220;8.654;2023-07-13T02:12:50;3.43;;;2.20;;
5682;SDS011;2864;49.220;8.654;2023-07-13T02:15:16;6.73;;;2.40;;
5682;SDS011;2864;49.220;8.654;2023-07-13T02:17:42;5.63;;;2.30;;
5682;SDS011;2864;49.220;8.654;2023-07-13T02:20:07;3.37;;;2.10;;
5682;SDS011;2864;49.220;8.654;2023-07-13T02:22:34;3.80;;;2.00;;
5682;SDS011;2864;49.220;8.654;2023-07-13T02:25:00;2.53;;;2.10;;
5682;SDS011;2864;49.220;8.654;2023-07-13T02:27:25;4.40;;;2.30;;
5682;SDS011;2864;49.220;8.654;2023-07-13T02:29:51;2.87;;;2.20;;
5682;SDS011;2864;49.220;8.654;2023-07-13T02:32:17;2.73;;;2.17;;
5682;SDS011;2864;49.220;8.654;2023-07-13T02:34:43;3.80;;;2.40;;
5682;SDS011;2864;49.220;8.654;2023-07-13T02:37:09;3.67;;;2.10;;
5682;SDS011;2864;49.220;8.654;2023-07-13T02:39:34;3.97;;;2.40;;
5682;SDS011;2864;49.220;8.654;2023-07-13T02:42:00;4.20;;;2.13;;
5682;SDS011;2864;49.220;8.654;2023-07-13T02:44:26;4.70;;;2.40;;
5682;SDS011;2864;49.220;8.654;2023-07-13T02:46:52;4.13;;;2.07;;
5682;SDS011;2864;49.220;8.654;2023-07-13T02:49:17;3.70;;;2.30;;
5682;SDS011;2864;49.220;8.654;2023-07-13T02:51:43;3.10;;;2.17;;
5682;SDS011;2864;49.220;8.654;2023-07-13T02:54:08;3.40;;;2.30;;
5682;SDS011;2864;49.220;8.654;2023-07-13T02:56:34;4.40;;;2.27;;
5682;SDS011;2864;49.220;8.654;2023-07-13T02:59:00;2.83;;;2.30;;
5682;SDS011;2864;49.220;8.654;2023-07-13T03:01:26;3.50;;;2.30;;
5682;SDS011;2864;49.220;8.654;2023-07-13T03:03:52;5.90;;;2.20;;
5682;SDS011;2864;49.220;8.654;2023-07-13T03:06:18;7.73;;;2.50;;
5682;SDS011;2864;49.220;8.654;2023-07-13T03:08:44;3.03;;;2.30;;
5682;SDS011;2864;49.220;8.654;2023-07-13T03:11:11;5.10;;;2.20;;
5682;SDS011;2864;49.220;8.654;2023-07-13T03:13:39;3.27;;;2.30;;
5682;SDS011;2864;49.220;8.654;2023-07-13T03:16:05;2.97;;;2.50;;
5682;SDS011;2864;49.220;8.654;2023-07-13T03:18:32;3.03;;;2.57;;
5682;SDS011;2864;49.220;8.654;2023-07-13T03:20:57;4.73;;;2.50;;
5682;SDS011;2864;49.220;8.654;2023-07-13T03:23:23;4.60;;;2.40;;
5682;SDS011;2864;49.220;8.654;2023-07-13T03:25:50;4.33;;;2.50;;
5682;SDS011;2864;49.220;8.654;2023-07-13T03:28:25;6.93;;;3.00;;
5682;SDS011;2864;49.220;8.654;2023-07-13T03:30:58;4.83;;;2.43;;
5682;SDS011;2864;49.220;8.654;2023-07-13T03:33:28;4.03;;;2.70;;
5682;SDS011;2864;49.220;8.654;2023-07-13T03:35:54;4.03;;;2.20;;
5682;SDS011;2864;49.220;8.654;2023-07-13T03:38:19;6.40;;;2.77;;
5682;SDS011;2864;49.220;8.654;2023-07-13T03:40:45;3.67;;;2.70;;
5682;SDS011;2864;49.220;8.654;2023-07-13T03:43:10;3.83;;;2.50;;
5682;SDS011;2864;49.220;8.654;2023-07-13T03:45:37;3.70;;;2.40;;
5682;SDS011;2864;49.220;8.654;2023-07-13T03:48:03;5.57;;;2.60;;
5682;SDS011;2864;49.220;8.654;2023-07-13T03:50:30;4.63;;;2.43;;
5682;SDS011;2864;49.220;8.654;2023-07-13T03:52:56;3.00;;;2.53;;
5682;SDS011;2864;49.220;8.654;2023-07-13T03:55:23;14.53;;;2.77;;
5682;SDS011;2864;49.220;8.654;2023-07-13T03:57:53;3.40;;;2.40;;
5682;SDS011;2864;49.220;8.654;2023-07-13T04:00:22;3.30;;;2.20;;
5682;SDS011;2864;49.220;8.654;2023-07-13T04:02:48;7.57;;;2.83;;
5682;SDS011;2864;49.220;8.654;2023-07-13T04:05:14;7.23;;;2.50;;
5682;SDS011;2864;49.220;8.654;2023-07-13T04:07:40;3.93;;;2.70;;
5682;SDS011;2864;49.220;8.654;2023-07-13T04:10:06;3.83;;;2.70;;
5682;SDS011;2864;49.220;8.654;2023-07-13T04:12:32;3.20;;;2.57;;
5682;SDS011;2864;49.220;8.654;2023-07-13T04:14:57;5.30;;;2.90;;
5682;SDS011;2864;49.220;8.654;2023-07-13T04:17:24;4.33;;;2.60;;
5682;SDS011;2864;49.220;8.654;2023-07-13T04:19:49;5.37;;;2.77;;
5682;SDS011;2864;49.220;8.654;2023-07-13T04:22:15;5.10;;;2.67;;
5682;SDS011;2864;49.220;8.654;2023-07-13T04:24:40;3.60;;;2.70;;
5682;SDS011;2864;49.220;8.654;2023-07-13T04:27:06;3.80;;;2.63;;
5682;SDS011;2864;49.220;8.654;2023-07-13T04:29:32;5.73;;;2.90;;
5682;SDS011;2864;49.220;8.654;2023-07-13T04:31:58;4.40;;;3.17;;
5682;SDS011;2864;49.220;8.654;2023-07-13T04:34:23;6.03;;;3.03;;
5682;SDS011;2864;49.220;8.654;2023-07-13T04:36:49;3.30;;;2.80;;
5682;SDS011;2864;49.220;8.654;2023-07-13T04:39:15;5.30;;;2.80;;
5682;SDS011;2864;49.220;8.654;2023-07-13T04:41:41;5.43;;;2.50;;
5682;SDS011;2864;49.220;8.654;2023-07-13T04:44:06;6.73;;;2.80;;
5682;SDS011;2864;49.220;8.654;2023-07-13T04:46:32;4.83;;;2.90;;
5682;SDS011;2864;49.220;8.654;2023-07-13T04:48:57;3.93;;;2.97;;
5682;SDS011;2864;49.220;8.654;2023-07-13T04:51:23;7.47;;;3.10;;
5682;SDS011;2864;49.220;8.654;2023-07-13T04:53:49;6.03;;;3.03;;
5682;SDS011;2864;49.220;8.654;2023-07-13T04:56:15;9.77;;;2.47;;
5682;SDS011;2864;49.220;8.654;2023-07-13T04:58:40;4.50;;;2.77;;
5682;SDS011;2864;49.220;8.654;2023-07-13T05:01:06;4.93;;;2.57;;
5682;SDS011;2864;49.220;8.654;2023-07-13T05:03:33;4.33;;;2.97;;
5682;SDS011;2864;49.220;8.654;2023-07-13T05:06:00;5.47;;;2.70;;
5682;SDS011;2864;49.220;8.654;2023-07-13T05:08:28;3.57;;;2.50;;
5682;SDS011;2864;49.220;8.654;2023-07-13T05:10:54;6.13;;;2.50;;
5682;SDS011;2864;49.220;8.654;2023-07-13T05:13:20;3.13;;;2.10;;
5682;SDS011;2864;49.220;8.654;2023-07-13T05:15:47;4.17;;;2.40;;
5682;SDS011;2864;49.220;8.654;2023-07-13T05:18:20;8.43;;;3.27;;
5682;SDS011;2864;49.220;8.654;2023-07-13T05:20:46;4.33;;;3.00;;
5682;SDS011;2864;49.220;8.654;2023-07-13T05:23:11;8.63;;;2.77;;
5682;SDS011;2864;49.220;8.654;2023-07-13T05:25:37;6.43;;;2.83;;
5682;SDS011;2864;49.220;8.654;2023-07-13T05:28:02;4.63;;;2.57;;
5682;SDS011;2864;49.220;8.654;2023-07-13T05:30:28;3.57;;;2.87;;
5682;SDS011;2864;49.220;8.654;2023-07-13T05:32:53;10.03;;;3.30;;
5682;SDS011;2864;49.220;8.654;2023-07-13T05:35:19;4.07;;;2.50;;
5682;SDS011;2864;49.220;8.654;2023-07-13T05:37:44;6.10;;;2.60;;
5682;SDS011;2864;49.220;8.654;2023-07-13T05:40:10;2.83;;;2.40;;
5682;SDS011;2864;49.220;8.654;2023-07-13T05:42:36;6.37;;;2.80;;
5682;SDS011;2864;49.220;8.654;2023-07-13T05:45:02;5.10;;;2.80;;
5682;SDS011;2864;49.220;8.654;2023-07-13T05:47:27;6.03;;;2.70;;
5682;SDS011;2864;49.220;8.654;2023-07-13T05:49:53;6.57;;;2.80;;
5682;SDS011;2864;49.220;8.654;2023-07-13T05:52:19;6.83;;;4.10;;
5682;SDS011;2864;49.220;8.654;2023-07-13T05:54:44;6.57;;;2.67;;
5682;SDS011;2864;49.220;8.654;2023-07-13T05:57:10;6.20;;;2.80;;
5682;SDS011;2864;49.220;8.654;2023-07-13T05:59:35;3.70;;;2.43;;
5682;SDS011;2864;49.220;8.654;2023-07-13T06:02:01;4.60;;;2.50;;
5682;SDS011;2864;49.220;8.654;2023-07-13T06:04:26;8.80;;;3.00;;
5682;SDS011;2864;49.220;8.654;2023-07-13T06:06:52;5.70;;;3.10;;
5682;SDS011;2864;49.220;8.654;2023-07-13T06:09:18;4.03;;;2.60;;
5682;SDS011;2864;49.220;8.654;2023-07-13T06:11:43;5.87;;;2.43;;
5682;SDS011;2864;49.220;8.654;2023-07-13T06:14:09;3.83;;;2.37;;
5682;SDS011;2864;49.220;8.654;2023-07-13T06:16:35;6.03;;;2.50;;
5682;SDS011;2864;49.220;8.654;2023-07-13T06:19:01;4.30;;;2.60;;
5682;SDS011;2864;49.220;8.654;2023-07-13T06:21:26;6.37;;;2.20;;
5682;SDS011;2864;49.220;8.654;2023-07-13T06:23:52;3.77;;;2.07;;
5682;SDS011;2864;49.220;8.654;2023-07-13T06:26:18;3.23;;;2.40;;
5682;SDS011;2864;49.220;8.654;2023-07-13T06:28:45;9.57;;;2.73;;
5682;SDS011;2864;49.220;8.654;2023-07-13T06:31:11;7.83;;;2.20;;
5682;SDS011;2864;49.220;8.654;2023-07-13T06:33:38;3.93;;;2.10;;
5682;SDS011;2864;49.220;8.654;2023-07-13T06:36:05;3.37;;;2.33;;
5682;SDS011;2864;49.220;8.654;2023-07-13T06:38:32;4.33;;;2.23;;
5682;SDS011;2864;49.220;8.654;2023-07-13T06:40:58;3.80;;;2.20;;
5682;SDS011;2864;49.220;8.654;2023-07-13T06:43:23;3.33;;;2.00;;
5682;SDS011;2864;49.220;8.654;2023-07-13T06:45:54;4.80;;;2.00;;
5682;SDS011;2864;49.220;8.654;2023-07-13T06:48:20;5.00;;;2.43;;
5682;SDS011;2864;49.220;8.654;2023-07-13T06:50:47;8.03;;;2.43;;
5682;SDS011;2864;49.220;8.654;2023-07-13T06:53:14;5.23;;;2.33;;
5682;SDS011;2864;49.220;8.654;2023-07-13T06:55:40;3.63;;;1.90;;
5682;SDS011;2864;49.220;8.654;2023-07-13T06:58:05;4.50;;;2.10;;
5682;SDS011;2864;49.220;8.654;2023-07-13T07:00:32;10.60;;;2.87;;
5682;SDS011;2864;49.220;8.654;2023-07-13T07:02:57;7.57;;;2.03;;
5682;SDS011;2864;49.220;8.654;2023-07-13T07:05:23;4.00;;;2.27;;
5682;SDS011;2864;49.220;8.654;2023-07-13T07:07:54;5.10;;;2.13;;
5682;SDS011;2864;49.220;8.654;2023-07-13T07:10:21;4.63;;;2.20;;
5682;SDS011;2864;49.220;8.654;2023-07-13T07:12:46;5.37;;;2.10;;
5682;SDS011;2864;49.220;8.654;2023-07-13T07:15:12;4.40;;;2.20;;
5682;SDS011;2864;49.220;8.654;2023-07-13T07:17:38;6.93;;;2.07;;
5682;SDS011;2864;49.220;8.654;2023-07-13T07:20:04;4.07;;;2.00;;
5682;SDS011;2864;49.220;8.654;2023-07-13T07:22:30;3.80;;;1.63;;
5682;SDS011;2864;49.220;8.654;2023-07-13T07:24:56;4.17;;;1.93;;
5682;SDS011;2864;49.220;8.654;2023-07-13T07:27:23;3.27;;;2.30;;
5682;SDS011;2864;49.220;8.654;2023-07-13T07:29:49;4.63;;;2.50;;
5682;SDS011;2864;49.220;8.654;2023-07-13T07:32:15;4.97;;;2.00;;
5682;SDS011;2864;49.220;8.654;2023-07-13T07:34:40;4.80;;;2.10;;
5682;SDS011;2864;49.220;8.654;2023-07-13T07:37:06;4.37;;;2.00;;
5682;SDS011;2864;49.220;8.654;2023-07-13T07:39:31;5.73;;;1.80;;
5682;SDS011;2864;49.220;8.654;2023-07-13T07:41:57;5.47;;;2.10;;
5682;SDS011;2864;49.220;8.654;2023-07-13T07:44:23;6.13;;;2.20;;
5682;SDS011;2864;49.220;8.654;2023-07-13T07:46:49;9.13;;;2.50;;
5682;SDS011;2864;49.220;8.654;2023-07-13T07:49:14;8.73;;;2.20;;
5682;SDS011;2864;49.220;8.654;2023-07-13T07:51:40;3.97;;;2.17;;
5682;SDS011;2864;49.220;8.654;2023-07-13T07:54:05;6.40;;;2.30;;
5682;SDS011;2864;49.220;8.654;2023-07-13T07:56:31;6.60;;;2.13;;
5682;SDS011;2864;49.220;8.654;2023-07-13T07:58:58;7.03;;;1.97;;
5682;SDS011;2864;49.220;8.654;2023-07-13T08:01:23;6.17;;;2.33;;
5682;SDS011;2864;49.220;8.654;2023-07-13T08:03:49;6.13;;;2.17;;
5682;SDS011;2864;49.220;8.654;2023-07-13T08:06:14;4.07;;;1.90;;
5682;SDS011;2864;49.220;8.654;2023-07-13T08:08:40;3.90;;;2.10;;
5682;SDS011;2864;49.220;8.654;2023-07-13T08:11:06;7.00;;;1.93;;
5682;SDS011;2864;49.220;8.654;2023-07-13T08:13:33;3.97;;;2.03;;
5682;SDS011;2864;49.220;8.654;2023-07-13T08:15:59;6.47;;;1.87;;
5682;SDS011;2864;49.220;8.654;2023-07-13T08:18:25;3.43;;;1.70;;
5682;SDS011;2864;49.220;8.654;2023-07-13T08:20:53;8.13;;;2.27;;
5682;SDS011;2864;49.220;8.654;2023-07-13T08:23:21;3.53;;;2.00;;
5682;SDS011;2864;49.220;8.654;2023-07-13T08:25:50;4.57;;;1.73;;
5682;SDS011;2864;49.220;8.654;2023-07-13T08:28:19;3.90;;;1.90;;
5682;SDS011;2864;49.220;8.654;2023-07-13T08:30:46;2.63;;;1.50;;
5682;SDS011;2864;49.220;8.654;2023-07-13T08:33:16;4.87;;;1.83;;
5682;SDS011;2864;49.220;8.654;2023-07-13T08:35:45;3.23;;;1.70;;
5682;SDS011;2864;49.220;8.654;2023-07-13T08:38:11;6.20;;;1.80;;
5682;SDS011;2864;49.220;8.654;2023-07-13T08:40:37;3.80;;;1.80;;
5682;SDS011;2864;49.220;8.654;2023-07-13T08:43:04;3.53;;;1.80;;
5682;SDS011;2864;49.220;8.654;2023-07-13T08:45:43;5.13;;;1.60;;
5682;SDS011;2864;49.220;8.654;2023-07-13T08:48:18;4.13;;;1.83;;
5682;SDS011;2864;49.220;8.654;2023-07-13T08:53:36;3.57;;;1.60;;
5682;SDS011;2864;49.220;8.654;2023-07-13T08:56:27;2.43;;;1.43;;
5682;SDS011;2864;49.220;8.654;2023-07-13T08:59:05;3.87;;;1.70;;
5682;SDS011;2864;49.220;8.654;2023-07-13T09:04:36;2.87;;;1.73;;
5682;SDS011;2864;49.220;8.654;2023-07-13T09:15:20;6.50;;;1.87;;
5682;SDS011;2864;49.220;8.654;2023-07-13T09:17:51;4.30;;;1.70;;
5682;SDS011;2864;49.220;8.654;2023-07-13T09:22:50;3.80;;;1.60;;
5682;SDS011;2864;49.220;8.654;2023-07-13T09:25:27;4.07;;;1.77;;
5682;SDS011;2864;49.220;8.654;2023-07-13T09:28:01;4.17;;;1.60;;
5682;SDS011;2864;49.220;8.654;2023-07-13T09:30:46;3.90;;;1.90;;
5682;SDS011;2864;49.220;8.654;2023-07-13T09:33:19;5.73;;;1.80;;
5682;SDS011;2864;49.220;8.654;2023-07-13T09:35:45;2.53;;;1.47;;
5682;SDS011;2864;49.220;8.654;2023-07-13T09:38:13;4.40;;;1.80;;
5682;SDS011;2864;49.220;8.654;2023-07-13T09:40:42;3.47;;;1.53;;
5682;SDS011;2864;49.220;8.654;2023-07-13T09:43:38;3.47;;;1.60;;
5682;SDS011;2864;49.220;8.654;2023-07-13T09:46:03;2.47;;;1.40;;
5682;SDS011;2864;49.220;8.654;2023-07-13T09:48:34;3.80;;;1.70;;
5682;SDS011;2864;49.220;8.654;2023-07-13T09:51:06;3.37;;;1.70;;
5682;SDS011;2864;49.220;8.654;2023-07-13T09:53:39;2.27;;;1.43;;
5682;SDS011;2864;49.220;8.654;2023-07-13T09:56:11;4.83;;;1.63;;
5682;SDS011;2864;49.220;8.654;2023-07-13T09:58:45;3.23;;;1.70;;
5682;SDS011;2864;49.220;8.654;2023-07-13T10:01:10;3.87;;;1.80;;
5682;SDS011;2864;49.220;8.654;2023-07-13T10:03:37;4.73;;;1.40;;
5682;SDS011;2864;49.220;8.654;2023-07-13T10:06:15;3.80;;;1.90;;
5682;SDS011;2864;49.220;8.654;2023-07-13T10:08:44;4.80;;;1.70;;
5682;SDS011;2864;49.220;8.654;2023-07-13T10:13:54;2.45;;;1.50;;
5682;SDS011;2864;49.220;8.654;2023-07-13T10:16:22;3.07;;;1.60;;
5682;SDS011;2864;49.220;8.654;2023-07-13T10:18:53;3.33;;;1.60;;
5682;SDS011;2864;49.220;8.654;2023-07-13T10:21:23;2.63;;;1.80;;
5682;SDS011;2864;49.220;8.654;2023-07-13T10:23:54;3.75;;;1.58;;
5682;SDS011;2864;49.220;8.654;2023-07-13T10:26:26;2.55;;;1.50;;
5682;SDS011;2864;49.220;8.654;2023-07-13T10:29:01;4.72;;;1.70;;
5682;SDS011;2864;49.220;8.654;2023-07-13T10:31:32;4.70;;;1.85;;
5682;SDS011;2864;49.220;8.654;2023-07-13T10:33:59;3.83;;;1.65;;
5682;SDS011;2864;49.220;8.654;2023-07-13T10:36:32;4.03;;;1.77;;
5682;SDS011;2864;49.220;8.654;2023-07-13T10:39:04;3.08;;;1.80;;
5682;SDS011;2864;49.220;8.654;2023-07-13T10:41:30;3.85;;;1.80;;
5682;SDS011;2864;49.220;8.654;2023-07-13T10:44:01;5.60;;;2.17;;
5682;SDS011;2864;49.220;8.654;2023-07-13T10:46:29;5.63;;;1.73;;
5682;SDS011;2864;49.220;8.654;2023-07-13T10:48:58;6.97;;;1.90;;
5682;SDS011;2864;49.220;8.654;2023-07-13T10:51:26;6.03;;;1.92;;
5682;SDS011;2864;49.220;8.654;2023-07-13T10:59:46;2.85;;;1.63;;
5682;SDS011;2864;49.220;8.654;2023-07-13T11:02:25;2.78;;;1.70;;
5682;SDS011;2864;49.220;8.654;2023-07-13T11:04:54;3.15;;;1.60;;
5682;SDS011;2864;49.220;8.654;2023-07-13T11:07:29;3.07;;;1.87;;
5682;SDS011;2864;49.220;8.654;2023-07-13T11:09:57;7.28;;;1.70;;
5682;SDS011;2864;49.220;8.654;2023-07-13T11:22:50;3.78;;;1.70;;
5682;SDS011;2864;49.220;8.654;2023-07-13T11:27:52;5.38;;;1.80;;
5682;SDS011;2864;49.220;8.654;2023-07-13T11:35:41;3.05;;;1.60;;
5682;SDS011;2864;49.220;8.654;2023-07-13T11:38:16;2.88;;;1.50;;
5682;SDS011;2864;49.220;8.654;2023-07-13T11:40:47;3.75;;;1.80;;
5682;SDS011;2864;49.220;8.654;2023-07-13T11:43:15;3.40;;;1.80;;
5682;SDS011;2864;49.220;8.654;2023-07-13T11:45:41;6.50;;;1.75;;
5682;SDS011;2864;49.220;8.654;2023-07-13T11:48:21;5.45;;;1.88;;
5682;SDS011;2864;49.220;8.654;2023-07-13T11:50:58;2.13;;;1.60;;
5682;SDS011;2864;49.220;8.654;2023-07-13T11:53:28;7.32;;;1.90;;
5682;SDS011;2864;49.220;8.654;2023-07-13T11:55:57;4.43;;;1.90;;
5682;SDS011;2864;49.220;8.654;2023-07-13T11:58:24;5.70;;;1.95;;
5682;SDS011;2864;49.220;8.654;2023-07-13T12:00:53;3.83;;;1.60;;
5682;SDS011;2864;49.220;8.654;2023-07-13T12:03:20;7.97;;;2.10;;
5682;SDS011;2864;49.220;8.654;2023-07-13T12:05:55;5.85;;;1.73;;
5682;SDS011;2864;49.220;8.654;2023-07-13T12:08:31;2.65;;;1.50;;
5682;SDS011;2864;49.220;8.654;2023-07-13T12:11:05;7.13;;;1.90;;
5682;SDS011;2864;49.220;8.654;2023-07-13T12:13:38;3.22;;;1.60;;
5682;SDS011;2864;49.220;8.654;2023-07-13T12:16:11;3.53;;;1.60;;
5682;SDS011;2864;49.220;8.654;2023-07-13T12:18:42;3.88;;;1.52;;
5682;SDS011;2864;49.220;8.654;2023-07-13T12:21:12;2.97;;;1.60;;
5682;SDS011;2864;49.220;8.654;2023-07-13T12:23:39;2.28;;;1.50;;
5682;SDS011;2864;49.220;8.654;2023-07-13T12:26:08;3.95;;;1.60;;
5682;SDS011;2864;49.220;8.654;2023-07-13T12:28:37;4.20;;;1.67;;
5682;SDS011;2864;49.220;8.654;2023-07-13T12:34:19;5.60;;;1.70;;
5682;SDS011;2864;49.220;8.654;2023-07-13T12:41:42;4.55;;;1.60;;
5682;SDS011;2864;49.220;8.654;2023-07-13T12:44:14;5.07;;;1.60;;
5682;SDS011;2864;49.220;8.654;2023-07-13T12:46:50;4.40;;;1.80;;
5682;SDS011;2864;49.220;8.654;2023-07-13T12:49:27;3.42;;;1.67;;
5682;SDS011;2864;49.220;8.654;2023-07-13T12:51:58;3.05;;;1.67;;
5682;SDS011;2864;49.220;8.654;2023-07-13T12:54:26;3.65;;;1.67;;
5682;SDS011;2864;49.220;8.654;2023-07-13T12:56:53;5.28;;;1.70;;
5682;SDS011;2864;49.220;8.654;2023-07-13T12:59:22;4.25;;;1.88;;
5682;SDS011;2864;49.220;8.654;2023-07-13T13:01:50;3.72;;;1.65;;
5682;SDS011;2864;49.220;8.654;2023-07-13T13:04:16;3.95;;;1.70;;
5682;SDS011;2864;49.220;8.654;2023-07-13T13:06:46;4.40;;;1.45;;
5682;SDS011;2864;49.220;8.654;2023-07-13T13:09:13;8.57;;;1.92;;
5682;SDS011;2864;49.220;8.654;2023-07-13T13:11:39;4.55;;;1.90;;
5682;SDS011;2864;49.220;8.654;2023-07-13T13:14:05;3.25;;;1.80;;
5682;SDS011;2864;49.220;8.654;2023-07-13T13:16:33;3.17;;;1.60;;
5682;SDS011;2864;49.220;8.654;2023-07-13T13:19:01;4.38;;;1.50;;
5682;SDS011;2864;49.220;8.654;2023-07-13T13:21:40;2.28;;;1.42;;
5682;SDS011;2864;49.220;8.654;2023-07-13T13:24:11;3.92;;;1.80;;
5682;SDS011;2864;49.220;8.654;2023-07-13T13:26:37;3.13;;;1.77;;
5682;SDS011;2864;49.220;8.654;2023-07-13T13:29:09;3.05;;;1.60;;
5682;SDS011;2864;49.220;8.654;2023-07-13T13:31:40;4.78;;;1.98;;
5682;SDS011;2864;49.220;8.654;2023-07-13T13:34:13;3.22;;;1.52;;
5682;SDS011;2864;49.220;8.654;2023-07-13T13:36:41;3.65;;;1.50;;
5682;SDS011;2864;49.220;8.654;2023-07-13T13:39:16;2.15;;;1.40;;
5682;SDS011;2864;49.220;8.654;2023-07-13T13:41:47;2.20;;;1.50;;
5682;SDS011;2864;49.220;8.654;2023-07-13T13:44:14;2.35;;;1.45;;
5682;SDS011;2864;49.220;8.654;2023-07-13T13:46:41;4.88;;;1.63;;
5682;SDS011;2864;49.220;8.654;2023-07-13T13:49:12;7.13;;;1.70;;
5682;SDS011;2864;49.220;8.654;2023-07-13T13:51:39;3.17;;;1.80;;
5682;SDS011;2864;49.220;8.654;2023-07-13T13:54:05;4.72;;;1.63;;
5682;SDS011;2864;49.220;8.654;2023-07-13T13:56:39;3.50;;;1.50;;
5682;SDS011;2864;49.220;8.654;2023-07-13T13:59:06;4.63;;;1.80;;
5682;SDS011;2864;49.220;8.654;2023-07-13T14:01:33;3.67;;;1.58;;
5682;SDS011;2864;49.220;8.654;2023-07-13T14:04:00;5.57;;;1.70;;
5682;SDS011;2864;49.220;8.654;2023-07-13T14:06:26;2.28;;;1.50;;
5682;SDS011;2864;49.220;8.654;2023-07-13T14:08:53;5.15;;;1.90;;
5682;SDS011;2864;49.220;8.654;2023-07-13T14:11:20;5.05;;;1.90;;
5682;SDS011;2864;49.220;8.654;2023-07-13T14:13:50;3.38;;;1.63;;
5682;SDS011;2864;49.220;8.654;2023-07-13T14:16:19;5.57;;;1.60;;
5682;SDS011;2864;49.220;8.654;2023-07-13T14:18:47;2.45;;;1.60;;
5682;SDS011;2864;49.220;8.654;2023-07-13T14:21:14;5.22;;;1.80;;
5682;SDS011;2864;49.220;8.654;2023-07-13T14:23:43;4.50;;;1.58;;
5682;SDS011;2864;49.220;8.654;2023-07-13T14:26:27;3.65;;;2.00;;
5682;SDS011;2864;49.220;8.654;2023-07-13T14:28:56;1.77;;;1.40;;
5682;SDS011;2864;49.220;8.654;2023-07-13T14:31:23;2.70;;;1.70;;
5682;SDS011;2864;49.220;8.654;2023-07-13T14:33:53;3.10;;;1.30;;
5682;SDS011;2864;49.220;8.654;2023-07-13T14:36:36;4.50;;;1.85;;
5682;SDS011;2864;49.220;8.654;2023-07-13T14:39:12;4.68;;;1.77;;
5682;SDS011;2864;49.220;8.654;2023-07-13T14:41:39;3.63;;;1.67;;
5682;SDS011;2864;49.220;8.654;2023-07-13T14:44:10;2.90;;;1.38;;
5682;SDS011;2864;49.220;8.654;2023-07-13T14:46:40;4.47;;;1.67;;
5682;SDS011;2864;49.220;8.654;2023-07-13T14:49:51;3.80;;;1.60;;
5682;SDS011;2864;49.220;8.654;2023-07-13T14:51:52;2.88;;;1.50;;
5682;SDS011;2864;49.220;8.654;2023-07-13T14:54:18;3.38;;;1.70;;
5682;SDS011;2864;49.220;8.654;2023-07-13T14:56:44;2.90;;;1.70;;
5682;SDS011;2864;49.220;8.654;2023-07-13T14:59:09;2.67;;;1.40;;
5682;SDS011;2864;49.220;8.654;2023-07-13T15:01:37;3.38;;;1.75;;
5682;SDS011;2864;49.220;8.654;2023-07-13T15:04:05;2.65;;;1.80;;
5682;SDS011;2864;49.220;8.654;2023-07-13T15:06:30;2.80;;;1.50;;
5682;SDS011;2864;49.220;8.654;2023-07-13T15:08:56;3.28;;;1.60;;
5682;SDS011;2864;49.220;8.654;2023-07-13T15:11:22;2.70;;;1.48;;
5682;SDS011;2864;49.220;8.654;2023-07-13T15:13:49;4.78;;;1.40;;
5682;SDS011;2864;49.220;8.654;2023-07-13T15:16:16;4.00;;;1.60;;
5682;SDS011;2864;49.220;8.654;2023-07-13T15:18:46;3.90;;;1.70;;
5682;SDS011;2864;49.220;8.654;2023-07-13T15:21:20;3.50;;;1.77;;
5682;SDS011;2864;49.220;8.654;2023-07-13T15:23:47;4.93;;;1.77;;
5682;SDS011;2864;49.220;8.654;2023-07-13T15:26:14;3.35;;;1.63;;
5682;SDS011;2864;49.220;8.654;2023-07-13T15:28:41;3.85;;;1.75;;
5682;SDS011;2864;49.220;8.654;2023-07-13T15:31:21;2.17;;;1.52;;
5682;SDS011;2864;49.220;8.654;2023-07-13T15:33:49;5.60;;;1.55;;
5682;SDS011;2864;49.220;8.654;2023-07-13T15:36:17;2.75;;;1.90;;
5682;SDS011;2864;49.220;8.654;2023-07-13T15:38:43;7.50;;;2.00;;
5682;SDS011;2864;49.220;8.654;2023-07-13T15:41:24;6.75;;;1.88;;
5682;SDS011;2864;49.220;8.654;2023-07-13T15:44:00;5.60;;;1.73;;
5682;SDS011;2864;49.220;8.654;2023-07-13T15:46:42;7.75;;;2.00;;
5682;SDS011;2864;49.220;8.654;2023-07-13T15:49:08;2.78;;;1.70;;
5682;SDS011;2864;49.220;8.654;2023-07-13T15:51:34;3.78;;;1.83;;
5682;SDS011;2864;49.220;8.654;2023-07-13T15:54:00;6.18;;;1.92;;
5682;SDS011;2864;49.220;8.654;2023-07-13T15:56:33;3.45;;;1.50;;
5682;SDS011;2864;49.220;8.654;2023-07-13T15:59:01;5.70;;;1.77;;
5682;SDS011;2864;49.220;8.654;2023-07-13T16:01:28;3.95;;;1.63;;
5682;SDS011;2864;49.220;8.654;2023-07-13T16:03:54;5.28;;;1.77;;
5682;SDS011;2864;49.220;8.654;2023-07-13T16:06:22;6.47;;;1.73;;
5682;SDS011;2864;49.220;8.654;2023-07-13T16:08:51;3.30;;;1.60;;
5682;SDS011;2864;49.220;8.654;2023-07-13T16:11:19;2.47;;;1.70;;
5682;SDS011;2864;49.220;8.654;2023-07-13T16:13:50;2.17;;;1.60;;
5682;SDS011;2864;49.220;8.654;2023-07-13T16:16:23;3.85;;;1.60;;
5682;SDS011;2864;49.220;8.654;2023-07-13T16:18:53;5.13;;;1.92;;